Time;durP1;ratioP1;P1;durP2;ratioP2;P2;SDS_P1;SDS_P2;PMS_P1;PMS_P2;Temp;Humidity;BMP_temperature;BMP_pressure;BME280_temperature;BME280_humidity;BME280_pressure;Samples;Min_cycle;Max_cycle;Signal;HPM_P1;HPM_P2
2024/01/12 00:01:23;;;;;;;12.88;6.00;;;18.90;51.20;;;;;;5066846;28;20405;-57
2024/01/12 00:03:50;;;;;;;10.75;5.40;;;18.90;51.20;;;;;;5066664;28;20033;-57
2024/01/12 00:06:15;;;;;;;10.38;5.00;;;18.90;50.90;;;;;;5066691;28;20430;-50
2024/01/12 00:08:41;;;;;;;16.95;5.88;;;18.90;50.80;;;;;;5066497;28;20028;-53
2024/01/12 00:11:09;;;;;;;11.80;5.65;;;18.90;51.30;;;;;;5053782;28;20032;-53
2024/01/12 00:13:35;;;;;;;10.50;5.53;;;18.90;51.10;;;;;;5053402;28;20032;-57
2024/01/12 00:16:07;;;;;;;12.52;5.30;;;18.90;51.00;;;;;;5053334;28;20025;-57
2024/01/12 00:18:34;;;;;;;14.98;5.75;;;18.90;51.20;;;;;;5052961;28;20028;-54
2024/01/12 00:21:00;;;;;;;10.75;5.40;;;18.90;51.00;;;;;;5053251;28;20083;-57
2024/01/12 00:23:26;;;;;;;11.15;5.18;;;18.90;50.70;;;;;;5052913;28;20029;-58
2024/01/12 00:25:58;;;;;;;11.88;5.28;;;18.80;50.80;;;;;;5051538;28;20025;-57
2024/01/12 00:28:27;;;;;;;12.90;5.18;;;18.90;50.80;;;;;;5052809;28;20111;-57
2024/01/12 00:30:53;;;;;;;12.93;5.53;;;18.80;50.70;;;;;;5053271;28;20032;-56
2024/01/12 00:33:19;;;;;;;9.63;4.78;;;18.80;51.20;;;;;;5053097;28;20029;-54
2024/01/12 00:35:45;;;;;;;11.63;5.15;;;18.80;50.90;;;;;;5053040;28;20040;-56
2024/01/12 00:38:11;;;;;;;11.82;5.13;;;18.90;50.70;;;;;;5052790;28;20044;-57
2024/01/12 00:40:36;;;;;;;12.50;5.38;;;18.90;50.70;;;;;;5052757;28;20025;-55
2024/01/12 00:43:02;;;;;;;9.65;5.07;;;18.90;51.60;;;;;;5052963;28;20575;-57
2024/01/12 00:45:28;;;;;;;9.20;4.75;;;18.90;50.90;;;;;;5052907;28;20023;-57
2024/01/12 00:47:54;;;;;;;8.75;4.93;;;18.90;50.50;;;;;;5052805;28;20033;-57
2024/01/12 00:50:20;;;;;;;12.35;5.07;;;18.90;50.90;;;;;;5052585;28;20029;-57
2024/01/12 00:52:45;;;;;;;8.90;5.05;;;18.90;50.40;;;;;;5052856;28;20028;-56
2024/01/12 00:55:11;;;;;;;9.05;4.72;;;18.90;50.50;;;;;;5052778;28;20021;-56
2024/01/12 00:57:37;;;;;;;12.05;5.22;;;18.80;50.80;;;;;;5052562;28;20029;-57
2024/01/12 01:00:07;;;;;;;12.88;5.32;;;18.80;50.60;;;;;;5052361;28;20135;-50
2024/01/12 01:02:32;;;;;;;10.15;5.05;;;18.80;50.50;;;;;;5052655;28;20029;-51
2024/01/12 01:04:58;;;;;;;11.43;4.88;;;18.80;50.30;;;;;;5052439;28;20519;-50
2024/01/12 01:07:24;;;;;;;14.07;4.90;;;18.80;49.70;;;;;;5052440;28;20027;-51
2024/01/12 01:09:50;;;;;;;8.75;4.60;;;18.80;50.20;;;;;;5052059;28;20064;-53
2024/01/12 01:12:15;;;;;;;13.95;4.85;;;18.80;49.90;;;;;;5052266;28;20025;-56
2024/01/12 01:14:41;;;;;;;13.05;4.63;;;18.80;50.20;;;;;;5052038;28;20029;-53
2024/01/12 01:17:07;;;;;;;9.82;4.38;;;18.80;50.40;;;;;;5052217;28;20040;-52
2024/01/12 01:19:35;;;;;;;9.77;4.75;;;18.80;50.10;;;;;;5051855;28;20032;-52
2024/01/12 01:22:01;;;;;;;11.40;4.63;;;18.80;49.90;;;;;;5051146;28;20036;-52
2024/01/12 01:24:29;;;;;;;11.43;4.63;;;18.80;50.20;;;;;;5052016;28;20029;-57
2024/01/12 01:26:55;;;;;;;10.63;4.38;;;18.80;49.80;;;;;;5052404;28;20033;-53
2024/01/12 01:29:21;;;;;;;12.02;4.72;;;18.80;50.10;;;;;;5051668;28;20535;-56
2024/01/12 01:31:48;;;;;;;8.18;4.60;;;18.80;50.00;;;;;;5051940;28;20391;-57
2024/01/12 01:34:15;;;;;;;9.45;4.50;;;18.80;49.90;;;;;;5051723;28;20040;-54
2024/01/12 01:36:41;;;;;;;10.95;4.88;;;18.80;49.60;;;;;;5051809;28;20033;-53
2024/01/12 01:39:06;;;;;;;9.98;4.60;;;18.80;49.20;;;;;;5051476;28;20373;-53
2024/01/12 01:41:32;;;;;;;11.98;4.55;;;18.80;49.80;;;;;;5051612;28;20140;-52
2024/01/12 01:43:58;;;;;;;12.30;4.75;;;18.80;50.00;;;;;;5051343;28;20029;-57
2024/01/12 01:46:25;;;;;;;9.65;4.30;;;18.80;50.00;;;;;;5051476;28;20033;-57
2024/01/12 01:48:51;;;;;;;7.28;4.20;;;18.80;49.60;;;;;;5051431;28;20082;-53
2024/01/12 01:51:17;;;;;;;9.93;4.60;;;18.80;49.60;;;;;;5051467;28;20056;-52
2024/01/12 01:53:43;;;;;;;12.45;4.57;;;18.80;50.00;;;;;;5051495;28;20496;-52
2024/01/12 01:56:11;;;;;;;10.18;4.90;;;18.80;49.20;;;;;;5051394;28;20491;-54
2024/01/12 01:58:38;;;;;;;8.30;4.00;;;18.70;49.50;;;;;;5050942;28;20032;-50
2024/01/12 02:01:04;;;;;;;10.15;4.57;;;18.70;50.00;;;;;;5051287;28;20071;-50
2024/01/12 02:03:31;;;;;;;10.38;4.38;;;18.70;49.80;;;;;;5051247;28;20079;-54
2024/01/12 02:05:57;;;;;;;8.38;4.50;;;18.70;49.80;;;;;;5051210;28;20061;-51
2024/01/12 02:08:25;;;;;;;6.65;3.95;;;18.70;49.50;;;;;;5049861;28;20404;-54
2024/01/12 02:10:55;;;;;;;13.20;4.72;;;18.70;49.10;;;;;;5051259;28;20456;-51
2024/01/12 02:13:22;;;;;;;9.27;4.63;;;18.70;49.00;;;;;;5051425;28;20033;-51
2024/01/12 02:15:48;;;;;;;8.30;4.10;;;18.70;49.10;;;;;;5051018;28;20035;-50
2024/01/12 02:18:14;;;;;;;9.23;4.10;;;18.70;49.80;;;;;;5050822;28;20426;-54
2024/01/12 02:20:41;;;;;;;6.40;3.88;;;18.70;49.20;;;;;;5050991;28;20102;-51
2024/01/12 02:23:07;;;;;;;9.70;4.43;;;18.70;49.70;;;;;;5050947;28;20053;-52
2024/01/12 02:25:33;;;;;;;9.63;4.13;;;18.70;49.90;;;;;;5050686;28;20500;-51
2024/01/12 02:27:59;;;;;;;7.50;4.35;;;18.70;49.30;;;;;;5050935;28;20029;-51
2024/01/12 02:30:25;;;;;;;8.20;4.35;;;18.70;49.90;;;;;;5050681;28;20036;-55
2024/01/12 02:32:51;;;;;;;10.35;3.90;;;18.70;49.20;;;;;;5052396;28;20032;-53
2024/01/12 02:35:17;;;;;;;6.15;3.75;;;18.70;49.40;;;;;;5056081;28;20037;-54
2024/01/12 02:37:43;;;;;;;6.53;3.90;;;18.70;49.60;;;;;;5058197;28;20040;-57
2024/01/12 02:40:08;;;;;;;9.02;4.53;;;18.70;49.20;;;;;;5057805;28;20025;-57
2024/01/12 02:42:34;;;;;;;9.80;4.75;;;18.70;49.90;;;;;;5054514;28;20025;-56
2024/01/12 02:45:00;;;;;;;7.95;4.40;;;18.70;49.70;;;;;;5051172;28;20480;-57
2024/01/12 02:47:26;;;;;;;8.13;4.28;;;18.70;49.20;;;;;;5051003;28;20100;-54
2024/01/12 02:49:52;;;;;;;8.55;4.50;;;18.70;49.80;;;;;;5050498;28;20113;-55
2024/01/12 02:52:17;;;;;;;9.90;4.45;;;18.70;48.90;;;;;;5050539;28;20549;-56
2024/01/12 02:54:43;;;;;;;11.18;4.03;;;18.70;49.30;;;;;;5050305;28;20090;-59
2024/01/12 02:57:09;;;;;;;8.73;4.25;;;18.70;49.50;;;;;;5050552;28;20422;-57
2024/01/12 02:59:35;;;;;;;7.60;3.80;;;18.70;49.90;;;;;;5050128;28;20025;-57
2024/01/12 03:02:00;;;;;;;8.55;4.50;;;18.70;49.10;;;;;;5050445;28;20026;-56
2024/01/12 03:04:26;;;;;;;7.72;4.30;;;18.80;49.10;;;;;;5050469;28;20207;-57
2024/01/12 03:06:52;;;;;;;7.35;3.88;;;18.80;49.30;;;;;;5050517;28;20099;-57
2024/01/12 03:09:18;;;;;;;7.40;4.20;;;18.80;49.90;;;;;;5050034;28;20025;-56
2024/01/12 03:11:43;;;;;;;6.80;3.60;;;18.80;49.50;;;;;;5050296;28;20079;-55
2024/01/12 03:14:09;;;;;;;8.88;4.30;;;18.80;49.40;;;;;;5050322;28;20055;-59
2024/01/12 03:16:35;;;;;;;7.07;3.88;;;18.70;50.00;;;;;;5050440;28;20505;-56
2024/01/12 03:19:01;;;;;;;6.75;4.00;;;18.70;49.20;;;;;;5050152;28;20045;-57
2024/01/12 03:21:27;;;;;;;6.15;4.10;;;18.70;49.00;;;;;;5050266;28;20068;-54
2024/01/12 03:23:52;;;;;;;7.38;3.67;;;18.70;49.30;;;;;;5050197;28;20079;-54
2024/01/12 03:26:18;;;;;;;7.63;3.95;;;18.70;50.20;;;;;;5050339;28;20064;-58
2024/01/12 03:28:44;;;;;;;6.43;3.80;;;18.70;49.10;;;;;;5049998;28;20024;-55
2024/01/12 03:31:10;;;;;;;6.15;3.47;;;18.70;49.00;;;;;;5050300;28;20036;-50
2024/01/12 03:33:37;;;;;;;9.68;4.18;;;18.70;49.10;;;;;;5050137;28;20029;-56
2024/01/12 03:36:06;;;;;;;7.13;4.05;;;18.70;49.10;;;;;;5050146;28;20040;-50
2024/01/12 03:38:32;;;;;;;8.55;4.38;;;18.70;49.30;;;;;;5049787;28;20028;-51
2024/01/12 03:40:58;;;;;;;6.18;3.42;;;18.70;49.60;;;;;;5050171;28;20025;-53
2024/01/12 03:43:23;;;;;;;6.57;3.50;;;18.70;49.00;;;;;;5050302;28;20021;-53
2024/01/12 03:45:49;;;;;;;6.32;3.70;;;18.70;49.10;;;;;;5052495;28;20342;-54
2024/01/12 03:48:15;;;;;;;9.65;3.90;;;18.70;49.20;;;;;;5053761;28;20021;-59
2024/01/12 03:50:41;;;;;;;7.32;3.80;;;18.70;49.00;;;;;;5053869;28;20051;-56
2024/01/12 03:53:06;;;;;;;7.32;3.78;;;18.70;49.10;;;;;;5053653;28;20025;-54
2024/01/12 03:55:32;;;;;;;9.52;3.88;;;18.70;49.10;;;;;;5053765;28;20044;-55
2024/01/12 03:57:58;;;;;;;6.28;3.67;;;18.70;49.10;;;;;;5053764;28;20036;-57
2024/01/12 04:00:24;;;;;;;6.63;3.63;;;18.70;49.60;;;;;;5053306;28;20033;-55
2024/01/12 04:02:50;;;;;;;7.05;3.50;;;18.70;48.90;;;;;;5053701;28;20468;-53
2024/01/12 04:05:15;;;;;;;6.60;3.65;;;18.70;49.10;;;;;;5053476;28;20055;-56
2024/01/12 04:07:42;;;;;;;9.98;3.90;;;18.70;49.50;;;;;;5053479;28;20389;-56
2024/01/12 04:10:07;;;;;;;9.65;4.13;;;18.70;49.90;;;;;;5053302;28;20028;-53
2024/01/12 04:12:33;;;;;;;8.63;3.83;;;18.70;50.30;;;;;;5053484;28;20025;-57
2024/01/12 04:14:59;;;;;;;10.15;4.10;;;18.70;50.40;;;;;;5053334;28;20033;-53
2024/01/12 04:17:25;;;;;;;8.25;4.03;;;18.70;49.90;;;;;;5053330;28;20091;-54
2024/01/12 04:19:50;;;;;;;8.65;3.75;;;18.70;50.10;;;;;;5053008;28;20060;-57
2024/01/12 04:22:16;;;;;;;7.68;3.58;;;18.80;49.90;;;;;;5053177;28;20456;-56
2024/01/12 04:24:42;;;;;;;7.20;3.50;;;18.80;49.90;;;;;;5053121;28;20028;-56
2024/01/12 04:27:08;;;;;;;9.95;3.63;;;18.80;49.90;;;;;;5053045;28;20029;-58
2024/01/12 04:29:34;;;;;;;7.40;3.85;;;18.70;50.00;;;;;;5052735;28;20120;-56
2024/01/12 04:32:00;;;;;;;7.85;3.40;;;18.80;50.00;;;;;;5053003;28;20025;-56
2024/01/12 04:34:26;;;;;;;10.02;3.67;;;18.80;50.10;;;;;;5052916;28;20036;-57
2024/01/12 04:36:54;;;;;;;7.75;3.88;;;18.80;49.90;;;;;;5052767;28;20017;-57
2024/01/12 04:39:20;;;;;;;9.55;3.38;;;18.80;50.10;;;;;;5052617;28;20033;-57
2024/01/12 04:41:46;;;;;;;6.82;3.47;;;18.80;50.20;;;;;;5052934;28;20510;-57
2024/01/12 04:44:12;;;;;;;7.60;3.85;;;18.80;50.20;;;;;;5052799;28;20163;-55
2024/01/12 04:46:38;;;;;;;6.53;3.95;;;18.80;50.00;;;;;;5052750;28;20408;-50
2024/01/12 04:49:03;;;;;;;5.85;3.13;;;18.80;49.30;;;;;;5052433;28;20025;-52
2024/01/12 04:51:29;;;;;;;8.48;4.00;;;18.80;49.80;;;;;;5051490;28;20507;-53
2024/01/12 04:53:55;;;;;;;9.63;3.63;;;18.70;49.30;;;;;;5052754;28;20029;-55
2024/01/12 04:56:21;;;;;;;6.75;3.63;;;18.80;49.90;;;;;;5052510;28;20090;-50
2024/01/12 04:58:47;;;;;;;6.13;3.28;;;18.80;49.60;;;;;;5052324;28;20100;-53
2024/01/12 05:01:12;;;;;;;10.38;3.97;;;18.80;49.50;;;;;;5051426;28;20399;-50
2024/01/12 05:03:40;;;;;;;5.20;3.38;;;18.70;49.50;;;;;;5052387;28;20369;-57
2024/01/12 05:06:06;;;;;;;6.30;3.50;;;18.70;49.40;;;;;;5052141;28;20025;-57
2024/01/12 05:08:34;;;;;;;7.10;3.50;;;18.80;49.50;;;;;;5051992;28;20519;-57
2024/01/12 05:11:00;;;;;;;7.18;3.83;;;18.80;49.90;;;;;;5052390;28;20124;-52
2024/01/12 05:13:25;;;;;;;6.55;3.30;;;18.80;49.70;;;;;;5052325;28;20063;-52
2024/01/12 05:15:51;;;;;;;6.78;3.38;;;18.80;49.90;;;;;;5057994;23;20056;-52
2024/01/12 05:18:17;;;;;;;7.93;3.70;;;18.80;49.80;;;;;;5030783;28;20037;-52
2024/01/12 05:20:43;;;;;;;8.23;3.53;;;18.80;49.90;;;;;;5031300;28;20075;-51
2024/01/12 05:23:09;;;;;;;6.00;3.22;;;18.80;49.90;;;;;;5031394;28;20188;-50
2024/01/12 05:25:35;;;;;;;5.28;3.35;;;18.80;49.60;;;;;;5017063;28;20056;-54
2024/01/12 05:28:01;;;;;;;8.73;3.25;;;18.80;49.90;;;;;;5011532;28;20493;-52
2024/01/12 05:30:26;;;;;;;8.40;3.97;;;18.80;50.20;;;;;;5011217;28;20033;-51
2024/01/12 05:32:52;;;;;;;6.78;3.55;;;18.70;49.80;;;;;;5011341;28;20026;-49
2024/01/12 05:35:18;;;;;;;6.88;3.95;;;18.70;49.20;;;;;;5010048;28;20083;-51
2024/01/12 05:37:44;;;;;;;8.68;3.50;;;18.70;49.20;;;;;;5011237;28;20025;-52
2024/01/12 05:40:10;;;;;;;9.15;4.18;;;18.70;49.30;;;;;;5010589;28;20134;-53
2024/01/12 05:42:36;;;;;;;7.00;3.55;;;18.70;49.10;;;;;;5011179;28;20140;-56
2024/01/12 05:45:01;;;;;;;5.82;3.40;;;18.70;49.20;;;;;;5011141;28;20057;-55
2024/01/12 05:47:27;;;;;;;7.07;3.88;;;18.70;49.10;;;;;;5009990;28;20033;-54
2024/01/12 05:49:53;;;;;;;6.63;3.60;;;18.70;49.10;;;;;;5010752;28;20029;-49
2024/01/12 05:52:19;;;;;;;7.80;3.72;;;18.70;49.10;;;;;;5011018;28;20032;-54
2024/01/12 05:54:44;;;;;;;6.80;3.75;;;18.70;49.10;;;;;;5010905;28;20497;-54
2024/01/12 05:57:10;;;;;;;5.25;3.28;;;18.70;49.20;;;;;;5011083;28;20405;-50
2024/01/12 05:59:36;;;;;;;5.70;3.15;;;18.80;49.60;;;;;;5010692;28;20497;-52
2024/01/12 06:02:03;;;;;;;6.72;3.60;;;18.80;49.60;;;;;;5010920;28;20022;-51
2024/01/12 06:04:29;;;;;;;5.45;3.40;;;18.70;49.50;;;;;;5010716;28;20022;-51
2024/01/12 06:06:55;;;;;;;6.60;3.50;;;18.80;50.10;;;;;;5010745;28;20037;-54
2024/01/12 06:09:21;;;;;;;6.13;3.70;;;18.80;49.80;;;;;;5010103;28;20065;-52
2024/01/12 06:11:46;;;;;;;7.18;3.80;;;18.80;50.00;;;;;;5010670;28;20038;-56
2024/01/12 06:14:16;;;;;;;7.60;3.88;;;18.80;49.60;;;;;;5010567;28;20059;-51
2024/01/12 06:16:42;;;;;;;4.93;3.30;;;18.80;50.00;;;;;;5010716;28;20026;-53
2024/01/12 06:19:08;;;;;;;6.05;3.45;;;18.80;49.80;;;;;;5010107;28;20412;-51
2024/01/12 06:21:33;;;;;;;6.70;3.25;;;18.80;49.90;;;;;;5010689;28;20041;-55
2024/01/12 06:23:59;;;;;;;5.72;3.40;;;18.80;49.50;;;;;;5010565;28;20570;-52
2024/01/12 06:26:25;;;;;;;8.13;3.53;;;18.80;49.90;;;;;;5010527;28;20053;-53
2024/01/12 06:28:50;;;;;;;7.53;3.65;;;18.80;50.10;;;;;;5010096;28;20409;-52
2024/01/12 06:31:16;;;;;;;7.95;3.70;;;18.80;49.80;;;;;;5010290;28;20034;-55
2024/01/12 06:33:42;;;;;;;6.15;3.75;;;18.80;49.60;;;;;;5010292;28;20118;-53
2024/01/12 06:36:08;;;;;;;7.47;3.92;;;18.80;49.50;;;;;;5010429;28;20029;-53
2024/01/12 06:38:34;;;;;;;8.25;3.45;;;18.80;49.20;;;;;;5010027;28;20077;-56
2024/01/12 06:41:02;;;;;;;6.28;3.90;;;18.80;49.90;;;;;;5010306;28;20052;-59
2024/01/12 06:43:28;;;;;;;6.97;3.50;;;18.80;49.60;;;;;;5010306;28;20052;-54
2024/01/12 06:45:53;;;;;;;8.77;3.67;;;18.80;50.20;;;;;;5010112;28;20030;-56
2024/01/12 06:48:20;;;;;;;5.50;3.45;;;18.70;50.00;;;;;;5009767;28;20535;-56
2024/01/12 06:50:46;;;;;;;8.18;3.85;;;18.80;50.10;;;;;;5010034;28;20030;-56
2024/01/12 06:53:14;;;;;;;6.25;3.53;;;18.70;49.60;;;;;;5010147;28;20037;-57
2024/01/12 06:55:40;;;;;;;7.75;3.65;;;18.80;50.20;;;;;;5010115;28;20030;-58
2024/01/12 06:58:05;;;;;;;6.72;3.50;;;18.80;49.50;;;;;;5010088;28;20543;-58
2024/01/12 07:00:31;;;;;;;7.00;3.63;;;18.80;49.20;;;;;;5009744;28;20022;-55
2024/01/12 07:02:57;;;;;;;7.47;4.00;;;18.80;50.60;;;;;;5009955;28;20037;-55
2024/01/12 07:05:25;;;;;;;6.63;3.53;;;18.70;49.80;;;;;;5009889;28;20026;-58
2024/01/12 07:07:51;;;;;;;6.20;3.53;;;18.80;50.00;;;;;;5009891;28;20021;-55
2024/01/12 07:10:16;;;;;;;7.13;3.47;;;18.80;49.10;;;;;;5009621;28;20033;-54
2024/01/12 07:12:42;;;;;;;5.35;3.40;;;18.80;50.00;;;;;;5009977;28;20409;-53
2024/01/12 07:15:09;;;;;;;6.78;4.18;;;18.80;49.30;;;;;;5008455;28;20404;-53
2024/01/12 07:17:34;;;;;;;5.97;3.63;;;18.70;49.50;;;;;;5009718;28;20526;-53
2024/01/12 07:20:01;;;;;;;5.18;3.22;;;18.70;48.90;;;;;;5010730;28;20076;-53
2024/01/12 07:22:26;;;;;;;8.70;3.70;;;18.70;49.10;;;;;;5013799;28;20022;-55
2024/01/12 07:24:52;;;;;;;11.35;3.92;;;18.70;49.60;;;;;;5013878;28;20025;-52
2024/01/12 07:27:18;;;;;;;6.90;3.80;;;18.70;49.10;;;;;;5014185;28;20534;-52
2024/01/12 07:29:44;;;;;;;14.15;3.90;;;18.70;49.00;;;;;;5013788;28;20058;-54
2024/01/12 07:32:10;;;;;;;10.13;3.55;;;18.70;48.90;;;;;;5013275;28;20029;-51
2024/01/12 07:34:35;;;;;;;7.97;3.50;;;18.70;49.30;;;;;;5012582;28;20037;-53
2024/01/12 07:37:02;;;;;;;5.93;3.38;;;18.80;49.60;;;;;;5013994;28;20030;-56
2024/01/12 07:39:28;;;;;;;6.82;3.63;;;18.80;49.90;;;;;;5013323;28;20026;-56
2024/01/12 07:41:54;;;;;;;5.53;3.33;;;18.80;50.00;;;;;;5013749;28;20113;-57
2024/01/12 07:44:21;;;;;;;8.30;3.25;;;18.80;50.20;;;;;;5013967;28;20444;-55
2024/01/12 07:46:47;;;;;;;7.68;3.55;;;18.80;49.50;;;;;;5013777;28;20072;-52
2024/01/12 07:49:14;;;;;;;6.25;3.65;;;18.80;50.10;;;;;;5013110;28;20044;-57
2024/01/12 07:51:40;;;;;;;13.57;3.58;;;18.80;49.80;;;;;;5013645;28;20108;-57
2024/01/12 07:54:05;;;;;;;6.60;3.45;;;18.80;49.70;;;;;;5013618;28;20022;-56
2024/01/12 07:56:31;;;;;;;5.70;3.40;;;18.80;49.90;;;;;;5013733;28;20394;-55
2024/01/12 07:58:57;;;;;;;6.25;3.65;;;18.80;50.00;;;;;;5013180;28;20057;-52
2024/01/12 08:01:23;;;;;;;6.55;3.60;;;18.80;49.30;;;;;;5013357;28;20022;-53
2024/01/12 08:03:49;;;;;;;7.70;3.80;;;18.80;49.30;;;;;;5013341;28;20033;-53
2024/01/12 08:06:15;;;;;;;6.30;3.90;;;18.80;50.00;;;;;;5013314;28;20087;-53
2024/01/12 08:08:41;;;;;;;5.63;3.13;;;18.80;49.20;;;;;;5012988;28;20124;-57
2024/01/12 08:11:07;;;;;;;6.35;3.40;;;18.80;49.90;;;;;;5013223;28;20057;-50
2024/01/12 08:13:32;;;;;;;6.53;3.63;;;18.80;49.70;;;;;;5013246;28;20030;-49
2024/01/12 08:15:58;;;;;;;5.90;3.50;;;18.80;49.70;;;;;;5012950;28;20041;-53
2024/01/12 08:18:24;;;;;;;6.07;3.22;;;18.80;49.70;;;;;;5011458;28;20385;-58
2024/01/12 08:20:50;;;;;;;6.90;4.10;;;18.80;50.10;;;;;;5013125;28;20400;-52
2024/01/12 08:23:16;;;;;;;8.93;3.70;;;18.80;49.80;;;;;;5013120;28;20037;-52
2024/01/12 08:25:42;;;;;;;6.30;3.55;;;18.80;49.80;;;;;;5013000;28;20507;-52
2024/01/12 08:28:08;;;;;;;7.20;3.80;;;18.80;49.10;;;;;;5011566;28;20124;-52
2024/01/12 08:30:34;;;;;;;6.05;3.20;;;18.80;49.60;;;;;;5012319;28;20137;-51
2024/01/12 08:33:00;;;;;;;8.57;4.07;;;18.80;49.80;;;;;;5012836;28;20072;-54
2024/01/12 08:35:26;;;;;;;8.15;4.50;;;18.80;49.20;;;;;;5012765;28;20033;-52
2024/01/12 08:37:52;;;;;;;9.65;4.07;;;18.80;49.20;;;;;;5011568;28;20582;-54
2024/01/12 08:40:18;;;;;;;8.82;3.67;;;18.80;49.50;;;;;;5012398;28;20033;-51
2024/01/12 08:42:44;;;;;;;7.28;4.50;;;18.80;49.00;;;;;;5012618;28;20030;-53
2024/01/12 08:45:09;;;;;;;6.80;4.10;;;18.80;48.90;;;;;;4999916;28;20559;-52
2024/01/12 08:47:35;;;;;;;8.75;4.10;;;18.80;49.60;;;;;;5005146;28;20034;-48
2024/01/12 08:50:01;;;;;;;19.85;4.25;;;18.80;49.60;;;;;;5007464;28;20588;-54
2024/01/12 08:52:28;;;;;;;8.90;4.25;;;18.80;50.70;;;;;;5009351;28;20018;-55
2024/01/12 08:54:54;;;;;;;10.85;4.30;;;18.80;50.20;;;;;;5010140;28;20433;-57
2024/01/12 08:57:20;;;;;;;8.90;3.67;;;18.90;50.80;;;;;;5008598;28;20071;-50
2024/01/12 08:59:46;;;;;;;12.88;3.45;;;18.90;50.70;;;;;;5004637;28;20050;-52
2024/01/12 09:02:12;;;;;;;8.82;3.45;;;19.00;50.60;;;;;;4992216;28;20034;-52
2024/01/12 09:04:38;;;;;;;9.35;4.07;;;19.10;50.30;;;;;;5010792;28;20026;-54
2024/01/12 09:07:04;;;;;;;19.08;4.53;;;19.10;52.60;;;;;;5009032;28;20432;-53
2024/01/12 09:09:29;;;;;;;10.15;3.60;;;19.20;52.60;;;;;;5009924;28;20144;-55
2024/01/12 09:11:55;;;;;;;12.63;3.88;;;19.30;54.60;;;;;;5008952;28;20033;-50
2024/01/12 09:14:21;;;;;;;10.90;3.58;;;19.40;53.50;;;;;;5009975;28;20038;-47
2024/01/12 09:16:47;;;;;;;8.35;4.00;;;19.50;54.50;;;;;;5009378;28;20030;-54
2024/01/12 09:19:12;;;;;;;8.57;4.20;;;19.50;54.20;;;;;;5009074;28;20620;-52
2024/01/12 09:21:38;;;;;;;9.50;4.78;;;19.50;54.40;;;;;;5009236;28;20535;-50
2024/01/12 09:24:05;;;;;;;11.45;4.05;;;19.50;53.30;;;;;;5009765;28;20755;-53
2024/01/12 09:26:30;;;;;;;10.35;4.25;;;19.50;53.30;;;;;;5009249;28;20429;-51
2024/01/12 09:28:56;;;;;;;10.70;4.40;;;19.50;53.30;;;;;;5008161;28;20030;-53
2024/01/12 09:31:22;;;;;;;9.45;3.83;;;19.50;53.20;;;;;;5009125;28;20371;-55
2024/01/12 09:33:48;;;;;;;11.82;3.88;;;19.50;53.10;;;;;;5006796;28;20039;-51
2024/01/12 09:36:13;;;;;;;8.65;3.60;;;19.50;52.80;;;;;;5007377;28;20034;-56
2024/01/12 09:38:39;;;;;;;16.02;4.13;;;19.50;52.80;;;;;;5008733;28;20101;-56
2024/01/12 09:41:08;;;;;;;12.48;3.78;;;19.50;52.50;;;;;;5008980;28;20402;-57
2024/01/12 09:43:36;;;;;;;8.20;3.53;;;19.50;52.50;;;;;;5008445;28;20060;-51
2024/01/12 09:46:06;;;;;;;10.80;3.70;;;19.50;52.50;;;;;;5008303;28;20440;-55
2024/01/12 09:48:33;;;;;;;9.57;3.85;;;19.40;52.30;;;;;;5007505;28;20042;-57
2024/01/12 09:51:00;;;;;;;10.20;3.80;;;19.40;52.30;;;;;;5008989;28;20543;-50
2024/01/12 09:53:26;;;;;;;9.63;3.70;;;19.40;52.20;;;;;;5009413;28;20426;-48
2024/01/12 09:55:52;;;;;;;8.90;3.90;;;19.40;52.30;;;;;;5007583;28;20058;-49
2024/01/12 09:58:20;;;;;;;8.63;4.00;;;19.30;52.10;;;;;;5008457;28;20045;-52
2024/01/12 10:00:48;;;;;;;8.20;3.47;;;19.30;51.70;;;;;;5007017;28;20029;-55
2024/01/12 10:03:17;;;;;;;10.35;3.53;;;19.30;52.00;;;;;;5008681;28;20536;-51
2024/01/12 10:05:43;;;;;;;7.00;3.72;;;19.30;51.80;;;;;;5008664;28;20022;-49
2024/01/12 10:08:09;;;;;;;7.35;3.40;;;19.30;51.90;;;;;;5008707;28;20029;-49
2024/01/12 10:10:35;;;;;;;9.85;3.70;;;19.30;51.70;;;;;;5007564;28;20037;-51
2024/01/12 10:13:02;;;;;;;8.65;3.83;;;19.30;51.60;;;;;;5007226;28;20117;-53
2024/01/12 10:15:29;;;;;;;8.18;4.25;;;19.20;51.00;;;;;;5006712;28;20108;-50
2024/01/12 10:17:56;;;;;;;8.23;4.47;;;18.90;47.00;;;;;;5008542;28;20038;-49
2024/01/12 10:20:22;;;;;;;8.57;4.35;;;18.60;44.30;;;;;;5007069;28;20034;-53
2024/01/12 10:22:58;;;;;;;9.27;4.40;;;18.50;43.40;;;;;;5001651;28;20058;-51
2024/01/12 10:25:24;;;;;;;5.95;3.50;;;18.60;45.10;;;;;;5008066;28;20026;-51
2024/01/12 10:27:56;;;;;;;8.10;3.60;;;18.80;44.90;;;;;;5008481;28;20022;-53
2024/01/12 10:30:22;;;;;;;5.57;3.60;;;18.80;45.10;;;;;;5007959;28;20022;-48
2024/01/12 10:32:52;;;;;;;7.43;3.25;;;19.00;45.20;;;;;;5008418;28;20041;-52
2024/01/12 10:35:21;;;;;;;;;;;19.00;46.40;;;;;;5006912;28;20030;-52
2024/01/12 10:37:49;;;;;;;6.00;2.92;;;19.10;46.20;;;;;;5005474;28;19909;-52
2024/01/12 10:40:18;;;;;;;5.68;3.10;;;19.20;46.30;;;;;;5006772;28;20033;-53
2024/01/12 10:42:48;;;;;;;5.57;2.80;;;19.20;46.50;;;;;;5007074;28;20026;-54
2024/01/12 10:45:25;;;;;;;;;;;19.20;46.30;;;;;;5004761;28;20897;-55
2024/01/12 10:48:03;;;;;;;5.60;2.70;;;19.20;46.70;;;;;;5012910;28;19917;-54
2024/01/12 10:50:42;;;;;;;4.93;2.75;;;19.20;46.50;;;;;;5013140;28;20029;-56
2024/01/12 10:53:23;;;;;;;8.17;2.73;;;19.20;46.60;;;;;;5006757;28;20149;-56
2024/01/12 10:55:55;;;;;;;8.32;2.70;;;19.30;47.20;;;;;;5004565;28;20053;-53
2024/01/12 10:58:21;;;;;;;8.13;2.78;;;19.30;47.20;;;;;;5010972;28;20034;-55
2024/01/12 11:00:48;;;;;;;7.53;2.90;;;19.30;47.40;;;;;;5005362;28;20467;-54
2024/01/12 11:03:17;;;;;;;15.98;3.45;;;19.30;47.50;;;;;;5006169;28;20112;-49
2024/01/12 11:05:44;;;;;;;7.30;3.50;;;19.30;47.50;;;;;;4999478;28;20025;-52
2024/01/12 11:08:11;;;;;;;6.35;2.80;;;19.30;47.60;;;;;;5007914;28;20679;-55
2024/01/12 11:10:45;;;;;;;4.35;2.70;;;19.30;47.60;;;;;;5007647;28;20148;-54
2024/01/12 11:13:14;;;;;;;7.05;2.88;;;19.30;47.60;;;;;;5008053;28;20084;-57
2024/01/12 11:15:40;;;;;;;14.77;3.20;;;19.30;48.10;;;;;;5007537;28;20735;-54
2024/01/12 11:18:07;;;;;;;8.32;2.90;;;19.40;49.10;;;;;;5007777;28;20133;-53
2024/01/12 11:20:33;;;;;;;11.57;3.10;;;19.40;48.80;;;;;;5007341;28;20509;-56
2024/01/12 11:22:59;;;;;;;9.30;3.20;;;19.50;48.70;;;;;;5007903;28;20033;-54
2024/01/12 11:25:25;;;;;;;7.40;2.67;;;19.50;48.80;;;;;;5015651;28;20033;-56
2024/01/12 11:27:52;;;;;;;6.68;3.05;;;19.50;48.80;;;;;;5006716;28;20063;-57
2024/01/12 11:30:20;;;;;;;6.65;2.78;;;19.50;49.30;;;;;;5007603;28;20486;-55
2024/01/12 11:32:46;;;;;;;6.18;2.95;;;19.50;49.50;;;;;;5007352;28;20081;-55
2024/01/12 11:35:17;;;;;;;9.10;3.20;;;19.50;49.40;;;;;;5007634;28;20105;-57
2024/01/12 11:38:05;;;;;;;9.43;2.88;;;19.50;49.40;;;;;;5007155;28;20087;-56
2024/01/12 11:40:31;;;;;;;4.13;2.50;;;19.50;49.40;;;;;;5007420;28;20030;-58
2024/01/12 11:42:59;;;;;;;7.32;2.90;;;19.60;49.60;;;;;;5007750;28;20025;-55
2024/01/12 11:45:25;;;;;;;8.23;3.10;;;19.60;49.60;;;;;;5007643;28;20235;-56
2024/01/12 11:47:51;;;;;;;6.28;2.80;;;19.60;49.60;;;;;;5007565;28;20033;-55
2024/01/12 11:50:17;;;;;;;8.27;3.05;;;19.60;49.50;;;;;;5006288;28;20405;-53
2024/01/12 11:52:57;;;;;;;8.52;2.97;;;19.60;49.50;;;;;;5003090;28;20140;-54
2024/01/12 11:55:24;;;;;;;9.00;2.88;;;19.60;49.50;;;;;;5006332;28;20030;-57
2024/01/12 11:57:52;;;;;;;8.95;3.50;;;19.60;49.40;;;;;;5006095;28;20030;-53
2024/01/12 12:00:19;;;;;;;9.45;3.15;;;19.60;49.40;;;;;;5007499;28;20578;-57
2024/01/12 12:02:45;;;;;;;5.40;3.10;;;19.60;49.40;;;;;;5002598;28;20117;-53
2024/01/12 12:05:14;;;;;;;5.20;2.90;;;19.60;49.40;;;;;;5007318;28;20447;-54
2024/01/12 12:07:40;;;;;;;9.88;2.97;;;19.60;49.40;;;;;;5010715;28;20037;-53
2024/01/12 12:10:08;;;;;;;7.63;3.05;;;19.60;49.50;;;;;;5010799;28;20062;-54
2024/01/12 12:12:35;;;;;;;10.43;3.40;;;19.60;49.50;;;;;;5010683;28;20033;-57
2024/01/12 12:15:05;;;;;;;8.90;3.25;;;19.60;49.50;;;;;;5010843;28;20037;-54
2024/01/12 12:17:36;;;;;;;11.57;3.25;;;19.60;50.20;;;;;;5010528;28;20034;-56
2024/01/12 12:20:04;;;;;;;8.50;3.17;;;19.60;49.60;;;;;;5010888;28;20022;-51
2024/01/12 12:22:31;;;;;;;8.38;3.67;;;19.60;49.60;;;;;;5009122;28;20470;-53
2024/01/12 12:24:56;;;;;;;9.02;2.90;;;19.60;49.60;;;;;;5010661;28;20085;-55
2024/01/12 12:27:23;;;;;;;7.13;3.33;;;19.60;49.60;;;;;;5010613;28;20397;-56
2024/01/12 12:29:50;;;;;;;6.20;3.25;;;19.60;49.70;;;;;;5006261;28;20152;-54
2024/01/12 12:32:16;;;;;;;7.88;3.17;;;19.60;49.70;;;;;;5010544;28;20523;-53
2024/01/12 12:34:45;;;;;;;7.25;2.70;;;19.60;49.70;;;;;;5010348;28;20037;-57
2024/01/12 12:37:16;;;;;;;7.65;3.00;;;19.60;49.60;;;;;;5010491;28;20053;-52
2024/01/12 12:39:42;;;;;;;10.85;3.60;;;19.60;49.60;;;;;;5010126;28;20420;-52
2024/01/12 12:42:11;;;;;;;7.40;2.70;;;19.60;49.60;;;;;;5010119;28;20631;-55